Time;durP1;ratioP1;P1;durP2;ratioP2;P2;SDS_P1;SDS_P2;PMS_P1;PMS_P2;Temp;Humidity;BMP_temperature;BMP_pressure;BME280_temperature;BME280_humidity;BME280_pressure;Samples;Min_cycle;Max_cycle;Signal;HPM_P1;HPM_P2
2024/04/11 00:00:56;;;;;;;2.50;1.17;;;22.00;80.90;;;;;;5448883;26;20346;-35
2024/04/11 00:03:29;;;;;;;3.07;1.10;;;22.20;81.30;;;;;;5452860;26;20553;-36
2024/04/11 00:05:55;;;;;;;1.73;1.30;;;21.90;81.20;;;;;;5456397;26;20250;-36
2024/04/11 00:08:24;;;;;;;1.63;1.20;;;21.90;81.30;;;;;;5456203;26;20480;-34
2024/04/11 00:10:54;;;;;;;1.73;1.23;;;21.90;81.50;;;;;;5456219;26;20737;-36
2024/04/11 00:13:22;;;;;;;1.00;0.90;;;21.80;81.50;;;;;;5458557;26;20472;-33
2024/04/11 00:15:50;;;;;;;1.30;1.20;;;21.80;81.70;;;;;;5455055;26;20468;-34
2024/04/11 00:18:21;;;;;;;1.90;1.10;;;21.80;81.90;;;;;;5455064;26;20526;-36
2024/04/11 00:20:53;;;;;;;1.73;1.13;;;21.70;82.00;;;;;;5452832;26;20550;-38
2024/04/11 00:23:21;;;;;;;1.17;1.00;;;21.70;82.20;;;;;;5459361;26;20460;-35
2024/04/11 00:25:55;;;;;;;2.83;1.17;;;21.60;82.30;;;;;;5455553;26;21817;-38
2024/04/11 00:28:25;;;;;;;1.37;1.10;;;21.60;82.50;;;;;;5455662;26;20525;-34
2024/04/11 00:30:50;;;;;;;1.47;1.10;;;21.60;82.70;;;;;;5454548;26;20498;-37
2024/04/11 00:33:20;;;;;;;1.13;1.03;;;21.60;82.90;;;;;;5456111;26;20463;-33
2024/04/11 00:35:52;;;;;;;1.33;0.90;;;21.80;83.30;;;;;;5454118;26;20245;-35
2024/04/11 00:38:22;;;;;;;1.60;0.90;;;21.50;83.90;;;;;;5457803;26;20462;-36
2024/04/11 00:40:59;;;;;;;1.30;1.10;;;21.40;83.10;;;;;;5461043;26;21123;-37
2024/04/11 00:43:32;;;;;;;2.10;1.20;;;21.60;83.80;;;;;;5452870;26;20463;-37
2024/04/11 00:45:58;;;;;;;1.30;1.03;;;21.40;83.60;;;;;;5452233;26;20508;-38
2024/04/11 00:48:27;;;;;;;1.40;0.90;;;21.30;83.70;;;;;;5453229;26;20482;-37
2024/04/11 00:50:58;;;;;;;1.40;1.13;;;21.40;84.10;;;;;;5453784;26;20554;-37
2024/04/11 00:53:27;;;;;;;1.20;1.00;;;21.30;84.10;;;;;;5461629;26;20470;-34
2024/04/11 00:55:54;;;;;;;1.42;1.20;;;21.30;84.30;;;;;;5461013;26;20463;-35
2024/04/11 00:58:24;;;;;;;1.93;1.20;;;21.40;84.50;;;;;;5461863;26;20731;-34
2024/04/11 01:00:54;;;;;;;1.10;0.93;;;21.50;84.90;;;;;;5463558;26;20443;-35
2024/04/11 01:03:22;;;;;;;1.03;0.87;;;21.00;84.40;;;;;;5443759;26;20238;-35
2024/04/11 01:05:48;;;;;;;1.33;1.00;;;21.20;84.80;;;;;;5456499;26;20448;-35
2024/04/11 01:08:19;;;;;;;3.23;1.00;;;21.20;85.00;;;;;;5459095;26;20555;-38
2024/04/11 01:10:50;;;;;;;1.30;0.90;;;21.10;85.10;;;;;;5455461;26;20354;-34
2024/04/11 01:13:20;;;;;;;1.40;1.03;;;21.40;85.60;;;;;;5463688;26;20456;-33
2024/04/11 01:15:49;;;;;;;1.30;1.05;;;21.40;85.70;;;;;;5458626;26;20464;-37
2024/04/11 01:18:19;;;;;;;1.50;1.10;;;21.10;85.50;;;;;;5454870;26;20292;-34
2024/04/11 01:20:45;;;;;;;1.38;1.10;;;21.00;85.50;;;;;;5463576;26;20663;-34
2024/04/11 01:23:16;;;;;;;1.60;1.10;;;21.00;85.60;;;;;;5465118;26;20242;-37
2024/04/11 01:25:43;;;;;;;1.10;0.90;;;21.10;85.90;;;;;;5455368;26;20594;-36
2024/04/11 01:28:12;;;;;;;1.10;0.90;;;21.00;85.90;;;;;;5455090;26;20367;-34
2024/04/11 01:30:38;;;;;;;1.10;1.00;;;21.00;86.00;;;;;;5451618;26;20463;-36
2024/04/11 01:33:09;;;;;;;1.40;1.00;;;20.90;86.10;;;;;;5443373;26;20234;-36
2024/04/11 01:35:37;;;;;;;1.65;1.10;;;20.90;86.20;;;;;;5451899;26;20829;-35
2024/04/11 01:38:05;;;;;;;1.35;1.05;;;20.90;86.40;;;;;;5461656;26;20658;-36
2024/04/11 01:40:36;;;;;;;1.52;0.90;;;20.90;86.50;;;;;;5460004;26;20273;-36
2024/04/11 01:43:04;;;;;;;1.40;1.02;;;20.90;86.70;;;;;;5457010;26;20862;-34
2024/04/11 01:45:31;;;;;;;1.60;1.00;;;20.90;86.80;;;;;;5456774;26;20281;-37
2024/04/11 01:48:03;;;;;;;1.40;1.20;;;20.80;86.80;;;;;;5459022;26;20294;-36
2024/04/11 01:50:29;;;;;;;1.10;0.90;;;20.80;87.00;;;;;;5457093;26;20253;-34
2024/04/11 01:52:57;;;;;;;2.07;1.37;;;20.80;87.20;;;;;;5450071;26;20234;-33
2024/04/11 01:55:23;;;;;;;4.55;1.15;;;21.00;87.60;;;;;;5458921;26;20481;-34
2024/04/11 01:57:54;;;;;;;1.10;0.80;;;20.50;87.10;;;;;;5435391;26;20306;-35
2024/04/11 02:00:20;;;;;;;1.45;1.02;;;20.70;87.60;;;;;;5453436;26;20238;-35
2024/04/11 02:02:49;;;;;;;1.47;1.00;;;21.00;88.10;;;;;;5459815;26;20364;-36
2024/04/11 02:05:15;;;;;;;1.58;1.00;;;20.40;87.60;;;;;;5458847;26;20729;-37
2024/04/11 02:07:46;;;;;;;1.40;0.77;;;20.60;88.00;;;;;;5448312;26;20307;-33
2024/04/11 02:10:12;;;;;;;1.60;1.05;;;20.60;88.10;;;;;;5462607;26;20848;-34
2024/04/11 02:12:41;;;;;;;1.33;1.07;;;20.60;88.30;;;;;;5463292;26;20290;-34
2024/04/11 02:15:10;;;;;;;1.55;1.23;;;20.50;88.40;;;;;;5457559;26;20282;-37
2024/04/11 02:17:38;;;;;;;1.20;0.90;;;20.50;88.50;;;;;;5449964;26;20945;-35
2024/04/11 02:20:13;;;;;;;1.50;1.05;;;20.50;88.70;;;;;;5459250;26;21055;-35
2024/04/11 02:22:44;;;;;;;1.23;0.90;;;20.40;88.70;;;;;;5447712;26;20234;-36
2024/04/11 02:25:10;;;;;;;1.40;1.10;;;20.40;89.00;;;;;;5461945;26;20785;-35
2024/04/11 02:27:40;;;;;;;1.30;1.00;;;20.20;89.00;;;;;;5441220;26;20788;-34
2024/04/11 02:30:11;;;;;;;1.10;0.80;;;20.40;89.30;;;;;;5455413;26;21554;-34
2024/04/11 02:32:41;;;;;;;1.20;0.90;;;20.40;89.50;;;;;;5461560;26;20358;-34
2024/04/11 02:35:14;;;;;;;1.10;0.80;;;20.50;89.80;;;;;;5443875;26;20280;-33
2024/04/11 02:37:44;;;;;;;1.73;1.10;;;20.30;89.80;;;;;;5456380;26;20250;-35
2024/04/11 02:40:11;;;;;;;1.20;0.80;;;20.30;89.90;;;;;;5460939;26;20227;-33
2024/04/11 02:42:42;;;;;;;1.10;0.80;;;20.30;90.00;;;;;;5456366;26;20261;-33
2024/04/11 02:45:14;;;;;;;1.80;1.15;;;20.20;90.10;;;;;;5460149;26;20242;-35
2024/04/11 02:47:49;;;;;;;2.08;0.90;;;20.20;90.10;;;;;;5455141;26;20789;-33
2024/04/11 02:50:23;;;;;;;2.10;0.98;;;20.20;90.20;;;;;;5447700;26;20234;-35
2024/04/11 02:52:52;;;;;;;1.33;1.10;;;20.20;90.30;;;;;;5460945;26;20230;-34
2024/04/11 02:55:18;;;;;;;1.20;1.00;;;20.10;90.30;;;;;;5456492;26;20337;-34
2024/04/11 02:57:46;;;;;;;1.50;0.90;;;20.10;90.40;;;;;;5458949;26;20670;-33
2024/04/11 03:00:20;;;;;;;1.55;0.98;;;20.10;90.50;;;;;;5457953;26;20243;-36
2024/04/11 03:02:51;;;;;;;1.08;0.98;;;20.10;90.60;;;;;;5463280;26;20243;-34
2024/04/11 03:05:26;;;;;;;1.40;1.00;;;20.10;90.70;;;;;;5456012;26;20258;-35
2024/04/11 03:07:59;;;;;;;1.88;1.20;;;20.00;90.70;;;;;;5454923;26;20924;-36
2024/04/11 03:10:31;;;;;;;1.10;1.00;;;20.00;90.70;;;;;;5443919;26;20297;-34
2024/04/11 03:13:01;;;;;;;1.95;1.05;;;20.00;90.80;;;;;;5462427;26;21321;-33
2024/04/11 03:15:33;;;;;;;1.10;0.80;;;20.00;90.90;;;;;;5458346;26;20230;-36
2024/04/11 03:18:03;;;;;;;1.25;1.05;;;20.00;91.00;;;;;;5461206;26;20238;-36
2024/04/11 03:20:29;;;;;;;1.13;0.98;;;19.90;91.00;;;;;;5452782;26;20234;-35
2024/04/11 03:22:59;;;;;;;1.20;1.00;;;19.90;91.10;;;;;;5457560;26;20273;-35
2024/04/11 03:25:30;;;;;;;1.52;1.00;;;19.90;91.10;;;;;;5461335;26;20234;-34
2024/04/11 03:28:00;;;;;;;1.33;1.00;;;19.90;91.20;;;;;;5452334;26;20234;-35
2024/04/11 03:30:33;;;;;;;2.10;1.08;;;19.80;91.20;;;;;;5457282;26;20281;-37
2024/04/11 03:33:02;;;;;;;1.20;0.90;;;19.80;91.30;;;;;;5462081;26;20239;-33
2024/04/11 03:35:32;;;;;;;1.20;0.90;;;19.80;91.30;;;;;;5458227;26;20230;-33
2024/04/11 03:38:03;;;;;;;1.90;0.90;;;19.80;91.40;;;;;;5453703;26;21207;-36
2024/04/11 03:40:29;;;;;;;1.35;1.15;;;19.80;91.50;;;;;;5457729;26;20338;-34
2024/04/11 03:43:03;;;;;;;1.37;1.00;;;19.70;91.50;;;;;;5456828;26;20309;-36
2024/04/11 03:45:37;;;;;;;1.27;1.00;;;19.70;91.50;;;;;;5454895;26;20222;-35
2024/04/11 03:48:11;;;;;;;1.27;0.88;;;19.60;91.50;;;;;;5448640;26;21680;-35
2024/04/11 03:50:42;;;;;;;1.20;1.00;;;19.70;91.70;;;;;;5457802;26;21003;-33
2024/04/11 03:53:11;;;;;;;1.20;1.00;;;19.70;91.70;;;;;;5460698;26;20269;-33
2024/04/11 03:55:45;;;;;;;1.20;0.90;;;19.70;91.80;;;;;;5446253;26;20280;-36
2024/04/11 03:58:16;;;;;;;1.23;1.02;;;19.60;91.80;;;;;;5458772;26;20280;-33
2024/04/11 04:00:50;;;;;;;1.10;0.88;;;19.40;91.70;;;;;;5456377;26;20238;-34
2024/04/11 04:03:19;;;;;;;1.35;1.15;;;19.60;91.90;;;;;;5460128;26;20322;-34
2024/04/11 04:05:52;;;;;;;1.40;1.00;;;19.80;92.10;;;;;;5456905;26;20710;-36
2024/04/11 04:08:19;;;;;;;1.15;0.95;;;19.60;92.10;;;;;;5456933;26;21312;-33
2024/04/11 04:10:50;;;;;;;1.10;0.90;;;19.60;92.10;;;;;;5449974;26;20744;-34
2024/04/11 04:13:20;;;;;;;1.40;1.23;;;19.60;92.10;;;;;;5460093;26;20758;-33
2024/04/11 04:15:53;;;;;;;1.42;1.05;;;19.50;92.20;;;;;;5456158;26;20322;-33
2024/04/11 04:18:21;;;;;;;1.40;1.25;;;19.50;92.20;;;;;;5450631;26;20230;-34
2024/04/11 04:21:07;;;;;;;1.10;1.00;;;19.70;92.40;;;;;;5445360;26;20618;-34
2024/04/11 04:23:33;;;;;;;1.27;1.00;;;19.50;92.30;;;;;;5432232;26;20238;-33
2024/04/11 04:26:09;;;;;;;1.23;0.90;;;19.50;92.40;;;;;;5458843;26;20317;-34
2024/04/11 04:28:38;;;;;;;1.83;1.13;;;19.40;92.40;;;;;;5443133;26;20350;-37
2024/04/11 04:31:20;;;;;;;1.20;0.90;;;19.40;92.40;;;;;;5450616;26;20781;-36
2024/04/11 04:33:47;;;;;;;1.20;1.00;;;19.20;92.40;;;;;;5460285;26;20303;-36
2024/04/11 04:36:17;;;;;;;1.50;1.02;;;19.60;92.70;;;;;;5451690;26;20234;-34
2024/04/11 04:38:46;;;;;;;1.55;1.08;;;19.40;92.60;;;;;;5456462;26;20254;-33
2024/04/11 04:41:15;;;;;;;1.30;1.00;;;19.40;92.60;;;;;;5458047;26;20277;-36
2024/04/11 04:43:48;;;;;;;1.30;0.98;;;19.40;92.70;;;;;;5447213;26;20602;-34
2024/04/11 04:46:23;;;;;;;1.67;0.90;;;19.60;92.80;;;;;;5455769;26;20233;-34
2024/04/11 04:48:49;;;;;;;1.33;0.95;;;19.30;92.80;;;;;;5460177;26;20218;-34
2024/04/11 04:51:19;;;;;;;1.30;1.00;;;19.30;92.80;;;;;;5456110;26;20230;-36
2024/04/11 04:53:49;;;;;;;1.10;0.95;;;19.30;92.80;;;;;;5453389;26;20260;-34
2024/04/11 04:56:22;;;;;;;1.40;1.10;;;19.30;92.90;;;;;;5456888;26;20738;-36
2024/04/11 04:58:58;;;;;;;1.30;1.05;;;19.50;93.00;;;;;;5460795;26;20273;-33
2024/04/11 05:01:35;;;;;;;1.60;1.50;;;19.30;93.00;;;;;;5455990;26;20869;-35
2024/04/11 05:04:03;;;;;;;0.90;0.80;;;19.30;93.20;;;;;;5453265;26;20284;-35
2024/04/11 05:06:38;;;;;;;1.33;0.80;;;19.30;93.20;;;;;;5454185;26;20305;-34
2024/04/11 05:09:10;;;;;;;1.10;0.90;;;19.30;93.30;;;;;;5450811;26;20222;-34
2024/04/11 05:11:40;;;;;;;2.13;1.40;;;19.30;93.40;;;;;;5459318;26;20226;-32
2024/04/11 05:14:07;;;;;;;1.63;1.00;;;19.20;93.50;;;;;;5450298;26;20272;-33
2024/04/11 05:16:50;;;;;;;1.55;1.20;;;19.20;93.60;;;;;;5451702;26;20264;-34
2024/04/11 05:19:21;;;;;;;1.25;1.00;;;19.20;93.80;;;;;;5455119;26;20284;-33
2024/04/11 05:22:11;;;;;;;1.13;1.02;;;19.20;94.00;;;;;;5448750;26;20231;-37
2024/04/11 05:24:38;;;;;;;1.67;0.90;;;19.20;94.10;;;;;;5455827;26;21127;-36
2024/04/11 05:27:09;;;;;;;2.20;1.55;;;19.20;94.30;;;;;;5441913;26;20976;-33
2024/04/11 05:29:39;;;;;;;1.75;1.00;;;19.00;94.30;;;;;;5446703;26;20242;-34
2024/04/11 05:32:11;;;;;;;1.30;1.00;;;19.20;94.50;;;;;;5449827;26;20314;-36
2024/04/11 05:34:36;;;;;;;1.30;1.02;;;19.10;94.50;;;;;;5442727;26;20990;-35
2024/04/11 05:37:10;;;;;;;1.20;0.90;;;19.10;94.70;;;;;;5456300;26;20230;-34
2024/04/11 05:39:40;;;;;;;1.10;1.00;;;19.10;94.70;;;;;;5459952;26;20230;-36
2024/04/11 05:42:10;;;;;;;1.33;1.00;;;18.90;94.70;;;;;;5450034;26;20760;-35
2024/04/11 05:44:40;;;;;;;1.20;1.00;;;19.10;94.90;;;;;;5456146;26;20231;-34
2024/04/11 05:47:14;;;;;;;1.25;0.98;;;19.10;95.00;;;;;;5455099;26;20227;-33
2024/04/11 05:49:45;;;;;;;2.20;1.10;;;19.10;95.10;;;;;;5447391;26;20242;-34
2024/04/11 05:52:13;;;;;;;1.20;1.00;;;18.90;95.10;;;;;;5446761;26;20257;-34
2024/04/11 05:54:43;;;;;;;2.85;1.20;;;19.10;95.30;;;;;;5459600;26;20323;-35
2024/04/11 05:57:14;;;;;;;6.35;1.20;;;19.10;95.70;;;;;;5458017;26;20317;-36
2024/04/11 05:59:40;;;;;;;1.33;0.95;;;19.10;95.80;;;;;;5442275;26;20234;-38
2024/04/11 06:02:18;;;;;;;5.90;1.50;;;19.10;95.90;;;;;;5455643;26;20234;-37
2024/04/11 06:04:50;;;;;;;2.58;1.55;;;19.10;95.90;;;;;;5458050;26;21697;-38
2024/04/11 06:07:24;;;;;;;2.35;1.40;;;19.10;96.30;;;;;;5447286;26;20230;-36
2024/04/11 06:09:54;;;;;;;1.98;0.90;;;19.10;96.60;;;;;;5462647;26;20627;-36
2024/04/11 06:12:28;;;;;;;5.30;1.02;;;19.10;96.60;;;;;;5461030;26;20329;-36
2024/04/11 06:14:57;;;;;;;1.30;1.10;;;18.90;96.70;;;;;;5455159;26;21147;-36
2024/04/11 06:17:34;;;;;;;1.98;1.23;;;19.10;96.90;;;;;;5447506;26;20226;-37
2024/04/11 06:20:01;;;;;;;1.13;0.90;;;19.10;97.00;;;;;;5458273;26;20311;-38
2024/04/11 06:22:35;;;;;;;1.35;0.98;;;19.10;97.10;;;;;;5426078;26;20315;-37
2024/04/11 06:25:01;;;;;;;1.27;0.90;;;19.20;97.10;;;;;;5462772;26;20341;-37
2024/04/11 06:27:43;;;;;;;1.07;0.90;;;19.20;97.00;;;;;;5438521;26;20306;-39
2024/04/11 06:30:12;;;;;;;2.85;1.30;;;19.20;97.00;;;;;;5445837;26;20235;-37
2024/04/11 06:32:43;;;;;;;1.00;0.80;;;19.20;96.70;;;;;;5458925;26;20273;-38
2024/04/11 06:35:09;;;;;;;1.23;0.80;;;19.20;97.00;;;;;;5459760;26;20734;-36
2024/04/11 06:37:38;;;;;;;2.80;1.20;;;19.30;96.80;;;;;;5452223;26;20277;-35
2024/04/11 06:40:12;;;;;;;1.95;1.00;;;19.30;97.00;;;;;;5459951;26;20338;-36
2024/04/11 06:42:46;;;;;;;1.42;1.20;;;19.40;97.00;;;;;;5461241;26;20235;-36
2024/04/11 06:45:14;;;;;;;1.25;0.90;;;19.50;96.70;;;;;;5459715;26;20229;-37
2024/04/11 06:47:48;;;;;;;1.58;0.80;;;19.70;96.60;;;;;;5448091;26;20280;-37
2024/04/11 06:50:14;;;;;;;1.48;1.02;;;19.80;96.40;;;;;;5461215;26;20382;-35
2024/04/11 06:52:42;;;;;;;1.10;0.90;;;19.90;96.10;;;;;;5441631;26;20298;-37
2024/04/11 06:55:14;;;;;;;1.10;0.70;;;19.80;95.90;;;;;;5465376;26;21034;-34
2024/04/11 06:57:44;;;;;;;2.80;0.80;;;20.10;95.80;;;;;;5457390;26;21104;-36
2024/04/11 07:00:21;;;;;;;2.47;1.10;;;20.30;95.80;;;;;;5462007;26;21128;-45
2024/04/11 07:02:54;;;;;;;2.50;1.00;;;20.10;95.40;;;;;;5458878;26;20684;-39
2024/04/11 07:05:23;;;;;;;1.45;1.02;;;20.20;94.40;;;;;;5463294;26;20230;-39
2024/04/11 07:07:54;;;;;;;2.38;1.00;;;20.10;93.40;;;;;;5454119;26;20346;-33
2024/04/11 07:10:36;;;;;;;5.10;1.52;;;20.10;94.00;;;;;;5455826;26;20234;-41
2024/04/11 07:13:04;;;;;;;1.92;1.00;;;20.20;93.90;;;;;;5460111;26;20586;-40
2024/04/11 07:15:30;;;;;;;1.45;0.90;;;20.20;93.70;;;;;;5460506;26;20304;-36
2024/04/11 07:18:01;;;;;;;3.23;1.10;;;20.20;93.80;;;;;;5446886;26;20238;-45
2024/04/11 07:20:31;;;;;;;3.38;1.17;;;20.20;93.70;;;;;;5450704;26;20235;-37
2024/04/11 07:23:00;;;;;;;2.00;1.25;;;20.30;93.60;;;;;;5454160;26;20272;-37
2024/04/11 07:25:37;;;;;;;1.83;1.00;;;20.30;93.50;;;;;;5460734;26;20727;-35
2024/04/11 07:28:09;;;;;;;2.55;0.90;;;20.40;93.40;;;;;;5450622;26;21286;-37
2024/04/11 07:30:42;;;;;;;2.95;1.08;;;20.40;93.30;;;;;;5457141;26;20330;-42
2024/04/11 07:33:18;;;;;;;1.50;0.90;;;20.50;93.20;;;;;;5454364;26;20326;-39
2024/04/11 07:35:45;;;;;;;1.67;1.15;;;20.50;93.00;;;;;;5457999;26;20235;-40
2024/04/11 07:38:13;;;;;;;6.13;1.20;;;20.50;92.90;;;;;;5458351;26;20347;-35
2024/04/11 07:40:45;;;;;;;4.05;1.10;;;20.60;92.80;;;;;;5449628;26;20485;-41
2024/04/11 07:43:14;;;;;;;1.38;0.90;;;20.60;92.70;;;;;;5436441;26;20238;-42
2024/04/11 07:45:40;;;;;;;2.83;1.20;;;20.60;92.60;;;;;;5450272;26;20226;-39
2024/04/11 07:48:12;;;;;;;1.55;1.00;;;20.70;92.50;;;;;;5451412;26;20269;-42
2024/04/11 07:50:43;;;;;;;1.57;1.03;;;20.80;92.40;;;;;;5454384;26;20236;-43
2024/04/11 07:53:18;;;;;;;2.33;1.02;;;20.80;92.30;;;;;;5453731;26;20558;-38
2024/04/11 07:55:46;;;;;;;1.37;0.87;;;20.80;92.10;;;;;;5457668;26;20290;-42
2024/04/11 07:58:18;;;;;;;4.47;1.00;;;20.90;92.00;;;;;;5457057;26;20460;-40
2024/04/11 08:00:47;;;;;;;1.50;0.90;;;20.90;91.90;;;;;;5454825;26;20476;-38
2024/04/11 08:03:17;;;;;;;1.40;0.90;;;20.90;91.80;;;;;;5459416;26;21068;-41
2024/04/11 08:05:48;;;;;;;1.40;1.10;;;20.90;91.60;;;;;;5455480;26;21177;-40
2024/04/11 08:08:20;;;;;;;1.40;1.00;;;21.00;91.50;;;;;;5459588;26;20235;-41
2024/04/11 08:10:47;;;;;;;2.13;1.27;;;21.00;91.30;;;;;;5452667;26;20527;-43
2024/04/11 08:13:25;;;;;;;3.20;1.00;;;21.00;91.20;;;;;;5451473;26;20464;-44
2024/04/11 08:15:53;;;;;;;1.47;1.10;;;21.00;91.00;;;;;;5436165;26;20464;-47
2024/04/11 08:18:24;;;;;;;2.83;0.90;;;21.30;91.20;;;;;;5445770;26;20524;-43
2024/04/11 08:20:52;;;;;;;3.50;1.23;;;21.10;91.10;;;;;;5450786;26;20556;-44
2024/04/11 08:23:24;;;;;;;1.13;0.90;;;21.10;90.90;;;;;;5447901;26;21131;-44
2024/04/11 08:25:52;;;;;;;1.10;0.90;;;21.20;90.60;;;;;;5459093;26;21115;-42
2024/04/11 08:28:20;;;;;;;1.40;0.88;;;21.20;90.30;;;;;;5445463;26;20464;-42
2024/04/11 08:30:56;;;;;;;2.30;0.87;;;21.30;90.10;;;;;;5456172;26;20338;-42
2024/04/11 08:33:25;;;;;;;1.93;0.80;;;21.30;89.80;;;;;;5458465;26;20526;-42
2024/04/11 08:36:01;;;;;;;4.80;1.20;;;21.30;89.80;;;;;;5452739;26;20580;-41
2024/04/11 08:38:33;;;;;;;2.43;1.07;;;21.40;89.70;;;;;;5450454;26;20542;-42
2024/04/11 08:41:09;;;;;;;1.77;1.17;;;21.30;84.30;;;;;;5456571;26;20512;-42
2024/04/11 08:43:38;;;;;;;1.50;1.13;;;21.40;81.20;;;;;;5453232;26;20580;-40
2024/04/11 08:46:10;;;;;;;2.80;1.00;;;21.30;80.20;;;;;;5459935;26;20459;-38
2024/04/11 08:48:41;;;;;;;2.57;1.10;;;21.60;80.10;;;;;;5458093;26;20467;-40
2024/04/11 08:51:19;;;;;;;3.20;1.13;;;21.40;80.10;;;;;;5459381;26;20640;-40
2024/04/11 08:53:58;;;;;;;10.23;1.30;;;21.40;79.70;;;;;;5458606;26;21056;-40
2024/04/11 08:56:28;;;;;;;2.43;1.10;;;21.50;79.60;;;;;;5447927;26;21097;-39
2024/04/11 08:58:56;;;;;;;3.63;1.40;;;21.60;79.00;;;;;;5456601;26;20463;-43
2024/04/11 09:01:25;;;;;;;2.90;1.07;;;21.60;79.00;;;;;;5458530;26;20480;-39
2024/04/11 09:03:57;;;;;;;2.60;0.90;;;21.60;78.70;;;;;;5422768;26;20975;-43
2024/04/11 09:06:28;;;;;;;10.17;1.40;;;21.60;78.20;;;;;;5447900;26;20463;-44
2024/04/11 09:09:07;;;;;;;2.23;1.00;;;21.60;78.10;;;;;;5454643;26;20464;-42
2024/04/11 09:11:36;;;;;;;4.47;1.17;;;21.70;79.00;;;;;;5446353;26;20986;-38
2024/04/11 09:14:10;;;;;;;1.70;1.20;;;21.80;78.70;;;;;;5451606;26;20541;-42
2024/04/11 09:16:38;;;;;;;3.63;1.40;;;21.90;78.50;;;;;;5446286;26;20490;-36
2024/04/11 09:19:09;;;;;;;2.57;0.90;;;21.90;78.70;;;;;;5445265;26;20851;-35
2024/04/11 09:21:45;;;;;;;1.40;1.00;;;22.20;79.00;;;;;;5458791;26;20571;-40
2024/04/11 09:24:16;;;;;;;1.30;0.90;;;22.00;78.60;;;;;;5455310;26;21118;-40
2024/04/11 09:26:43;;;;;;;2.13;0.90;;;22.00;78.50;;;;;;5459112;26;20487;-42
2024/04/11 09:29:17;;;;;;;2.17;1.30;;;22.00;79.00;;;;;;5454525;26;21073;-37
2024/04/11 09:31:49;;;;;;;1.87;1.67;;;22.00;79.00;;;;;;5452309;26;20482;-41
2024/04/11 09:34:26;;;;;;;3.17;1.30;;;22.00;79.00;;;;;;5461211;26;20463;-38
2024/04/11 09:36:59;;;;;;;2.10;1.77;;;22.00;79.30;;;;;;5453456;26;20542;-42
2024/04/11 09:39:56;;;;;;;1.77;1.17;;;21.90;78.90;;;;;;5458770;26;20503;-43
2024/04/11 09:42:26;;;;;;;2.10;1.27;;;22.00;79.20;;;;;;5453337;26;20519;-40
2024/04/11 09:45:00;;;;;;;3.40;1.10;;;22.10;79.10;;;;;;5463333;26;20467;-38
2024/04/11 09:47:26;;;;;;;1.47;1.00;;;22.20;79.40;;;;;;5453516;26;21077;-37
2024/04/11 09:49:59;;;;;;;1.57;1.03;;;22.50;79.40;;;;;;5442879;26;20922;-46
2024/04/11 09:52:34;;;;;;;2.30;0.90;;;22.50;84.90;;;;;;5437296;26;20519;-44
2024/04/11 09:55:07;;;;;;;2.60;1.00;;;22.00;79.00;;;;;;5459041;26;20521;-44
2024/04/11 09:57:34;;;;;;;2.27;1.10;;;22.30;79.60;;;;;;5458343;26;20447;-42
2024/04/11 10:00:22;;;;;;;2.17;0.90;;;22.40;80.00;;;;;;5461284;26;20479;-37
2024/04/11 10:02:52;;;;;;;3.10;0.80;;;22.50;80.10;;;;;;5445817;26;21594;-36
2024/04/11 10:05:25;;;;;;;1.53;1.00;;;22.50;80.10;;;;;;5461117;26;21093;-36
2024/04/11 10:08:01;;;;;;;1.50;0.90;;;22.60;80.10;;;;;;5446245;26;21058;-39
2024/04/11 10:10:42;;;;;;;3.07;1.30;;;22.80;80.10;;;;;;5460660;26;20467;-42
2024/04/11 10:13:12;;;;;;;2.27;1.00;;;22.70;80.00;;;;;;5454918;26;20591;-41
2024/04/11 10:15:41;;;;;;;2.40;0.93;;;22.70;80.00;;;;;;5458481;26;20518;-39
2024/04/11 10:18:09;;;;;;;2.30;1.10;;;22.70;79.60;;;;;;5454778;26;21081;-39
2024/04/11 10:20:42;;;;;;;3.00;1.00;;;22.80;79.90;;;;;;5460007;26;20487;-44
2024/04/11 10:23:15;;;;;;;2.60;1.13;;;22.80;79.20;;;;;;5459506;26;20464;-40
2024/04/11 10:25:49;;;;;;;1.30;0.80;;;22.90;80.00;;;;;;5453242;26;20555;-41
2024/04/11 10:28:15;;;;;;;1.50;0.80;;;22.90;79.90;;;;;;5454100;26;21450;-39
2024/04/11 10:30:55;;;;;;;1.40;0.90;;;22.90;79.80;;;;;;5447607;26;20473;-44
2024/04/11 10:33:29;;;;;;;2.00;1.20;;;23.20;80.00;;;;;;5458227;26;20277;-43
2024/04/11 10:36:06;;;;;;;1.70;1.10;;;23.00;79.70;;;;;;5458522;26;20938;-41
2024/04/11 10:38:38;;;;;;;1.30;0.93;;;23.30;79.60;;;;;;5440195;26;20459;-42
2024/04/11 10:41:17;;;;;;;1.30;0.80;;;23.10;79.70;;;;;;5456683;26;20523;-38
2024/04/11 10:43:49;;;;;;;1.80;1.10;;;23.10;79.60;;;;;;5456894;26;20815;-43
2024/04/11 10:46:20;;;;;;;1.20;0.83;;;23.20;79.50;;;;;;5456299;26;20698;-40
2024/04/11 10:48:50;;;;;;;1.50;1.03;;;23.20;79.30;;;;;;5456801;26;20463;-40
2024/04/11 10:51:22;;;;;;;1.30;0.80;;;23.60;79.60;;;;;;5454773;26;21019;-42
2024/04/11 10:54:11;;;;;;;1.40;0.90;;;23.20;79.30;;;;;;5441418;26;20574;-40
2024/04/11 10:56:46;;;;;;;1.30;1.10;;;23.30;79.30;;;;;;5450314;26;20543;-41
2024/04/11 10:59:18;;;;;;;1.47;0.77;;;23.30;79.00;;;;;;5456931;26;20482;-38
2024/04/11 11:01:51;;;;;;;1.30;0.80;;;23.00;78.60;;;;;;5458610;26;20980;-40
2024/04/11 11:04:21;;;;;;;1.20;0.80;;;23.30;78.90;;;;;;5459103;26;20459;-38
2024/04/11 11:06:59;;;;;;;1.70;0.97;;;23.30;78.90;;;;;;5456377;26;20528;-39
2024/04/11 11:09:29;;;;;;;2.10;0.90;;;23.40;78.80;;;;;;5455584;26;21241;-43
2024/04/11 11:12:00;;;;;;;2.90;1.00;;;23.50;78.90;;;;;;5453252;26;20531;-39
2024/04/11 11:14:29;;;;;;;1.10;0.80;;;23.40;78.70;;;;;;5452834;26;20520;-41
2024/04/11 11:17:02;;;;;;;1.10;0.83;;;23.20;78.20;;;;;;5459024;26;20467;-38
2024/04/11 11:19:30;;;;;;;1.70;0.90;;;23.40;78.40;;;;;;5461354;26;20448;-37
2024/04/11 11:22:01;;;;;;;1.23;0.80;;;23.50;78.40;;;;;;5454318;26;20527;-41
2024/04/11 11:24:34;;;;;;;1.13;0.80;;;23.50;78.30;;;;;;5458939;26;20964;-37
2024/04/11 11:27:07;;;;;;;4.30;0.80;;;23.60;78.40;;;;;;5458874;26;20589;-47
2024/04/11 11:29:42;;;;;;;1.90;1.00;;;23.60;78.20;;;;;;5449684;26;20520;-42
2024/04/11 11:32:18;;;;;;;3.00;0.80;;;23.60;78.20;;;;;;5460273;26;20941;-43
2024/04/11 11:34:46;;;;;;;2.33;1.20;;;23.60;78.20;;;;;;5454835;26;20494;-45
2024/04/11 11:37:21;;;;;;;1.27;0.90;;;23.40;77.80;;;;;;5459108;26;20463;-45
2024/04/11 11:39:55;;;;;;;1.20;0.80;;;23.60;77.90;;;;;;5458357;26;21147;-41
2024/04/11 11:42:26;;;;;;;1.10;0.80;;;23.60;77.90;;;;;;5453099;26;20472;-46
2024/04/11 11:45:08;;;;;;;1.30;0.70;;;23.40;77.60;;;;;;5455356;26;20487;-40
2024/04/11 11:47:37;;;;;;;1.70;0.83;;;23.60;77.60;;;;;;5443917;26;20519;-38
2024/04/11 11:50:16;;;;;;;1.20;0.80;;;23.50;77.50;;;;;;5457317;26;21026;-41
2024/04/11 11:52:51;;;;;;;1.20;0.90;;;23.70;77.60;;;;;;5433576;26;20467;-44
2024/04/11 11:55:35;;;;;;;1.50;0.90;;;23.70;77.60;;;;;;5242331;26;20579;-46
2024/04/11 11:58:18;;;;;;;2.27;1.20;;;23.70;77.50;;;;;;5226417;26;20555;-46
2024/04/11 12:00:50;;;;;;;1.37;0.87;;;23.80;77.50;;;;;;5228117;26;21375;-47
2024/04/11 12:03:20;;;;;;;1.30;0.93;;;23.80;77.40;;;;;;5222579;26;20464;-46
2024/04/11 12:05:50;;;;;;;1.00;0.80;;;23.80;77.30;;;;;;5203278;26;21956;-44
2024/04/11 12:08:24;;;;;;;1.23;0.73;;;23.80;77.20;;;;;;5193505;26;22091;-45
2024/04/11 12:13:45;;;;;;;1.10;0.80;;;23.60;76.80;;;;;;5226397;26;21132;-44
2024/04/11 12:16:17;;;;;;;1.00;0.70;;;23.90;77.00;;;;;;5227485;26;21095;-43
2024/04/11 12:18:52;;;;;;;1.50;0.87;;;23.90;76.90;;;;;;5223603;26;20840;-45
2024/04/11 12:21:26;;;;;;;1.83;0.90;;;23.70;76.50;;;;;;5423778;26;20460;-41
2024/04/11 12:23:57;;;;;;;1.60;0.97;;;23.90;76.70;;;;;;5453663;26;20484;-42
2024/04/11 12:26:33;;;;;;;1.07;0.73;;;24.00;76.60;;;;;;5456879;26;20456;-42
2024/04/11 12:29:05;;;;;;;1.17;0.83;;;24.00;75.60;;;;;;5455199;26;20606;-41
2024/04/11 12:31:30;;;;;;;1.00;0.80;;;24.00;74.50;;;;;;5456156;26;20560;-44
2024/04/11 12:34:04;;;;;;;1.37;1.07;;;23.50;74.40;;;;;;5453082;26;20476;-38
2024/04/11 12:39:32;;;;;;;1.20;0.80;;;24.10;75.30;;;;;;5446431;26;20499;-42
2024/04/11 12:42:02;;;;;;;1.47;0.70;;;24.10;75.30;;;;;;5453596;26;21291;-39
2024/04/11 12:44:36;;;;;;;1.20;0.70;;;23.80;74.90;;;;;;5432465;26;20462;-41
2024/04/11 12:47:13;;;;;;;1.70;0.90;;;24.10;75.20;;;;;;5460227;26;20472;-40
2024/04/11 12:49:47;;;;;;;2.60;0.77;;;24.10;75.20;;;;;;5459286;26;21066;-43
2024/04/11 12:52:22;;;;;;;1.30;0.90;;;24.20;75.30;;;;;;5452195;26;21032;-39
2024/04/11 12:54:52;;;;;;;1.20;1.00;;;24.10;74.80;;;;;;5459386;26;20619;-42
2024/04/11 12:57:28;;;;;;;1.63;1.00;;;24.20;74.80;;;;;;5461544;26;20464;-43
2024/04/11 13:00:07;;;;;;;1.20;0.70;;;24.10;74.60;;;;;;5461576;26;21086;-38
2024/04/11 13:02:34;;;;;;;1.10;0.90;;;24.10;74.60;;;;;;5462969;26;20568;-42
2024/04/11 13:05:05;;;;;;;1.13;0.87;;;24.20;74.60;;;;;;5459014;26;20472;-39
2024/04/11 13:07:32;;;;;;;1.07;0.90;;;24.10;74.20;;;;;;5457816;26;20479;-42
2024/04/11 13:10:10;;;;;;;1.10;0.80;;;24.10;74.20;;;;;;5454165;26;20460;-42
2024/04/11 13:12:43;;;;;;;1.00;0.80;;;24.10;74.20;;;;;;5454009;26;21240;-41
2024/04/11 13:15:19;;;;;;;1.10;0.73;;;24.10;74.10;;;;;;5456625;26;21197;-40